createdAt,value
2019-04-04T00:00:24.494Z,0.00
2019-04-04T00:01:24.482Z,0.00
2019-04-04T00:02:24.469Z,0.00
2019-04-04T00:03:24.499Z,0.00
2019-04-04T00:04:24.497Z,0.00
2019-04-04T00:05:26.213Z,0.00
2019-04-04T00:06:26.697Z,0.00
2019-04-04T00:07:24.459Z,0.00
2019-04-04T00:08:24.404Z,0.00
2019-04-04T00:09:24.394Z,0.00
2019-04-04T00:10:24.383Z,0.00
2019-04-04T00:11:24.376Z,0.00
2019-04-04T00:12:24.404Z,0.00
2019-04-04T00:13:24.351Z,0.00
2019-04-04T00:14:24.337Z,0.00
2019-04-04T00:15:24.372Z,0.00
2019-04-04T00:16:24.319Z,0.00
2019-04-04T00:17:24.346Z,0.00
2019-04-04T00:18:25.488Z,0.00
2019-04-04T00:19:24.284Z,0.00
2019-04-04T00:20:24.273Z,0.00
2019-04-04T00:21:24.263Z,0.00
2019-04-04T00:22:24.253Z,0.00
2019-04-04T00:23:24.279Z,0.00
2019-04-04T00:24:24.270Z,0.00
2019-04-04T00:25:24.219Z,0.00
2019-04-04T00:26:24.207Z,0.00
2019-04-04T00:27:24.197Z,0.00
2019-04-04T00:28:24.192Z,0.00
2019-04-04T00:29:24.243Z,0.00
2019-04-04T00:30:24.165Z,0.00
2019-04-04T00:31:24.178Z,0.00
2019-04-04T00:32:24.181Z,0.00
2019-04-04T00:33:25.735Z,0.00
2019-04-04T00:34:24.122Z,0.00
2019-04-04T00:35:24.111Z,0.00
2019-04-04T00:36:24.141Z,0.00
2019-04-04T00:37:24.124Z,0.00
2019-04-04T00:38:24.075Z,0.00
2019-04-04T00:39:24.062Z,0.00
2019-04-04T00:40:24.053Z,0.00
2019-04-04T00:41:24.086Z,0.00
2019-04-04T00:42:24.036Z,0.00
2019-04-04T00:43:24.019Z,0.00
2019-04-04T00:44:24.007Z,0.00
2019-04-04T00:45:24.003Z,0.00
2019-04-04T00:46:24.030Z,0.00
2019-04-04T00:47:23.975Z,0.00
2019-04-04T00:48:23.967Z,0.00
2019-04-04T00:49:23.957Z,0.00
2019-04-04T00:50:23.949Z,0.00
2019-04-04T00:51:23.930Z,0.00
2019-04-04T00:52:23.963Z,0.00
2019-04-04T00:53:23.969Z,0.00
2019-04-04T00:54:23.899Z,0.00
2019-04-04T00:55:23.887Z,0.00
2019-04-04T00:56:23.874Z,0.00
2019-04-04T00:57:23.866Z,0.00
2019-04-04T00:58:23.861Z,0.00
2019-04-04T00:59:23.882Z,0.00
2019-04-04T01:00:24.546Z,0.00
2019-04-04T01:01:26.059Z,0.00
2019-04-04T01:02:23.816Z,0.00
2019-04-04T01:03:23.843Z,0.00
2019-04-04T01:04:23.839Z,0.00
2019-04-04T01:05:23.779Z,0.00
2019-04-04T01:06:23.769Z,0.00
2019-04-04T01:07:23.756Z,0.00
2019-04-04T01:08:23.745Z,0.00
2019-04-04T01:09:23.739Z,0.00
2019-04-04T01:10:23.762Z,0.00
2019-04-04T01:11:23.757Z,0.00
2019-04-04T01:12:23.702Z,0.00
2019-04-04T01:13:27.245Z,0.00
2019-04-04T01:14:23.684Z,0.00
2019-04-04T01:15:23.706Z,0.00
2019-04-04T01:16:23.678Z,0.00
2019-04-04T01:17:23.649Z,0.00
2019-04-04T01:18:23.635Z,0.00
2019-04-04T01:19:23.663Z,0.00
2019-04-04T01:20:23.615Z,0.00
2019-04-04T01:21:23.608Z,0.00
2019-04-04T01:22:25.134Z,0.00
2019-04-04T01:23:25.144Z,0.00
2019-04-04T01:24:23.608Z,0.00
2019-04-04T01:25:23.600Z,0.00
2019-04-04T01:26:23.594Z,0.00
2019-04-04T01:27:23.540Z,0.00
2019-04-04T01:28:23.523Z,0.00
2019-04-04T01:29:23.515Z,0.00
2019-04-04T01:30:23.504Z,0.00
2019-04-04T01:31:23.492Z,0.00
2019-04-04T01:32:23.522Z,0.00
2019-04-04T01:33:23.473Z,0.00
2019-04-04T01:34:23.459Z,0.00
2019-04-04T01:35:23.448Z,0.00
2019-04-04T01:36:25.355Z,0.00
2019-04-04T01:37:25.206Z,0.00
2019-04-04T01:38:23.419Z,0.00
2019-04-04T01:39:23.407Z,0.00
2019-04-04T01:40:23.393Z,0.00
2019-04-04T01:41:23.387Z,0.00
2019-04-04T01:42:23.429Z,0.00
2019-04-04T01:43:23.362Z,0.00
2019-04-04T01:44:23.358Z,0.00
2019-04-04T01:45:23.403Z,0.00
2019-04-04T01:46:23.337Z,0.00
2019-04-04T01:47:23.315Z,0.00
2019-04-04T01:48:23.304Z,0.00
2019-04-04T01:49:23.294Z,0.00
2019-04-04T01:50:23.369Z,0.00
2019-04-04T01:51:25.466Z,0.00
2019-04-04T01:52:23.259Z,0.00
2019-04-04T01:53:23.251Z,0.00
2019-04-04T01:54:23.289Z,0.00
2019-04-04T01:55:23.229Z,0.00
2019-04-04T01:56:23.221Z,0.00
2019-04-04T01:57:23.205Z,0.00
2019-04-04T01:58:23.198Z,0.00
2019-04-04T01:59:23.184Z,0.00
2019-04-04T02:00:23.219Z,0.00
2019-04-04T02:01:23.207Z,0.00
2019-04-04T02:02:23.163Z,0.00
2019-04-04T02:03:23.374Z,0.00
2019-04-04T02:04:24.786Z,0.00
2019-04-04T02:05:23.126Z,0.00
2019-04-04T02:06:23.112Z,0.00
2019-04-04T02:07:23.150Z,0.00
2019-04-04T02:08:23.087Z,0.00
2019-04-04T02:09:23.076Z,0.00
2019-04-04T02:10:23.068Z,0.00
2019-04-04T02:11:23.054Z,0.00
2019-04-04T02:12:23.054Z,0.00
2019-04-04T02:13:23.073Z,0.00
2019-04-04T02:14:23.032Z,0.00
2019-04-04T02:15:23.011Z,0.00
2019-04-04T02:16:23.043Z,0.00
2019-04-04T02:17:22.986Z,0.00
2019-04-04T02:18:23.586Z,0.00
2019-04-04T02:19:24.815Z,0.00
2019-04-04T02:20:22.958Z,0.00
2019-04-04T02:21:22.942Z,0.00
2019-04-04T02:22:22.974Z,0.00
2019-04-04T02:23:22.922Z,0.00
2019-04-04T02:24:22.916Z,0.00
2019-04-04T02:25:22.898Z,0.00
2019-04-04T02:26:22.892Z,0.00
2019-04-04T02:27:22.919Z,0.00
2019-04-04T02:28:22.871Z,0.00
2019-04-04T02:29:22.904Z,0.00
2019-04-04T02:30:22.846Z,0.00
2019-04-04T02:31:22.853Z,0.00
2019-04-04T02:32:26.127Z,0.00
2019-04-04T02:33:22.819Z,0.00
2019-04-04T02:34:22.806Z,0.00
2019-04-04T02:35:22.846Z,0.00
2019-04-04T02:36:22.781Z,0.00
2019-04-04T02:37:22.813Z,0.00
2019-04-04T02:38:27.033Z,0.00
2019-04-04T02:39:23.754Z,0.00
2019-04-04T02:40:22.735Z,0.00
2019-04-04T02:41:22.763Z,0.00
2019-04-04T02:42:22.753Z,0.00
2019-04-04T02:43:27.333Z,0.00
2019-04-04T02:44:23.691Z,0.00
2019-04-04T02:45:22.681Z,0.00
2019-04-04T02:46:22.711Z,0.00
2019-04-04T02:47:22.701Z,0.00
2019-04-04T02:48:24.413Z,0.00
2019-04-04T02:49:22.680Z,0.00
2019-04-04T02:50:22.626Z,0.00
2019-04-04T02:51:22.616Z,0.00
2019-04-04T02:52:22.604Z,0.00
2019-04-04T02:53:22.594Z,0.00
2019-04-04T02:54:24.614Z,0.00
2019-04-04T02:55:22.578Z,0.00
2019-04-04T02:56:22.558Z,0.00
2019-04-04T02:57:22.551Z,0.00
2019-04-04T02:58:22.538Z,0.00
2019-04-04T02:59:22.600Z,0.00
2019-04-04T03:00:26.343Z,0.00
2019-04-04T03:01:23.501Z,0.00
2019-04-04T03:02:22.503Z,0.00
2019-04-04T03:03:22.485Z,0.00
2019-04-04T03:04:22.526Z,0.00
2019-04-04T03:05:22.460Z,0.00
2019-04-04T03:06:24.507Z,0.00
2019-04-04T03:07:22.446Z,0.00
2019-04-04T03:08:22.436Z,0.00
2019-04-04T03:09:22.418Z,0.00
2019-04-04T03:10:22.454Z,0.00
2019-04-04T03:11:22.943Z,0.00
2019-04-04T03:12:25.694Z,0.00
2019-04-04T03:13:22.378Z,0.00
2019-04-04T03:14:22.359Z,0.00
2019-04-04T03:15:22.358Z,0.00
2019-04-04T03:16:22.604Z,0.00
2019-04-04T03:17:22.329Z,0.00
2019-04-04T03:18:22.325Z,0.00
2019-04-04T03:19:22.313Z,0.00
2019-04-04T03:20:22.300Z,0.00
2019-04-04T03:21:23.572Z,0.00
2019-04-04T03:22:26.953Z,0.00
2019-04-04T03:23:23.262Z,0.00
2019-04-04T03:24:22.252Z,0.00
2019-04-04T03:25:22.298Z,0.00
2019-04-04T03:26:22.257Z,0.00
2019-04-04T03:27:25.743Z,0.00
2019-04-04T03:28:22.211Z,0.00
2019-04-04T03:29:22.196Z,0.00
2019-04-04T03:30:22.187Z,0.00
2019-04-04T03:31:22.243Z,0.00
2019-04-04T03:32:22.170Z,0.00
2019-04-04T03:33:28.987Z,0.00
2019-04-04T03:34:23.152Z,0.00
2019-04-04T03:35:28.309Z,0.00
2019-04-04T03:36:23.175Z,0.00
2019-04-04T03:37:22.109Z,0.00
2019-04-04T03:38:22.109Z,0.00
2019-04-04T03:39:22.137Z,0.00
2019-04-04T03:40:24.620Z,0.00
2019-04-04T03:41:22.065Z,0.00
2019-04-04T03:42:22.058Z,0.00
2019-04-04T03:43:22.087Z,0.00
2019-04-04T03:44:22.033Z,0.00
2019-04-04T03:45:25.971Z,0.00
2019-04-04T03:46:23.007Z,0.00
2019-04-04T03:47:22.051Z,0.00
2019-04-04T03:48:22.035Z,0.00
2019-04-04T03:49:24.455Z,0.00
2019-04-04T03:50:21.968Z,0.00
2019-04-04T03:51:21.959Z,0.00
2019-04-04T03:52:21.944Z,0.00
2019-04-04T03:53:21.973Z,0.00
2019-04-04T03:54:23.298Z,0.00
2019-04-04T03:55:21.918Z,0.00
2019-04-04T03:56:21.899Z,0.00
2019-04-04T03:57:21.889Z,0.00
2019-04-04T03:58:21.876Z,0.00
2019-04-04T03:59:21.908Z,0.00
2019-04-04T04:00:21.862Z,0.00
2019-04-04T04:01:21.847Z,0.00
2019-04-04T04:02:21.835Z,0.00
2019-04-04T04:03:22.743Z,0.00
2019-04-04T04:04:21.852Z,0.00
2019-04-04T04:05:21.803Z,0.00
2019-04-04T04:06:21.844Z,0.00
2019-04-04T04:07:21.784Z,0.00
2019-04-04T04:08:22.290Z,0.00
2019-04-04T04:09:23.513Z,0.00
2019-04-04T04:10:21.746Z,0.00
2019-04-04T04:11:21.781Z,0.00
2019-04-04T04:12:21.736Z,0.00
2019-04-04T04:13:21.711Z,0.00
2019-04-04T04:14:22.661Z,0.00
2019-04-04T04:15:21.697Z,0.00
2019-04-04T04:16:21.684Z,0.00
2019-04-04T04:17:21.722Z,0.00
2019-04-04T04:18:21.951Z,0.00
2019-04-04T04:19:24.233Z,0.00
2019-04-04T04:20:21.644Z,0.00
2019-04-04T04:21:21.624Z,0.00
2019-04-04T04:22:21.613Z,0.00
2019-04-04T04:23:23.896Z,0.00
2019-04-04T04:24:21.604Z,0.00
2019-04-04T04:25:21.586Z,0.00
2019-04-04T04:26:21.618Z,0.00
2019-04-04T04:27:21.568Z,0.00
2019-04-04T04:28:21.577Z,0.00
2019-04-04T04:29:21.539Z,0.00
2019-04-04T04:30:21.551Z,0.00
2019-04-04T04:31:21.525Z,0.00
2019-04-04T04:32:22.704Z,0.00
2019-04-04T04:33:21.502Z,0.00
2019-04-04T04:34:21.534Z,0.00
2019-04-04T04:35:21.471Z,0.00
2019-04-04T04:36:21.463Z,4.00
2019-04-04T04:37:21.451Z,4.00
2019-04-04T04:38:25.599Z,4.00
2019-04-04T04:39:22.475Z,0.00
2019-04-04T04:40:21.468Z,4.00
2019-04-04T04:41:21.489Z,4.00
2019-04-04T04:42:21.647Z,4.00
2019-04-04T04:43:21.384Z,8.00
2019-04-04T04:44:21.371Z,8.00
2019-04-04T04:45:21.377Z,8.00
2019-04-04T04:46:21.349Z,12.00
2019-04-04T04:47:23.850Z,12.00
2019-04-04T04:48:21.326Z,12.00
2019-04-04T04:49:23.272Z,12.00
2019-04-04T04:50:21.304Z,16.00
2019-04-04T04:51:21.296Z,16.00
2019-04-04T04:52:21.328Z,20.00
2019-04-04T04:53:21.314Z,24.00
2019-04-04T04:54:22.898Z,24.00
2019-04-04T04:55:21.248Z,24.00
2019-04-04T04:56:21.240Z,28.00
2019-04-04T04:57:29.479Z,32.00
2019-04-04T04:58:22.260Z,36.00
2019-04-04T04:59:21.228Z,44.00
2019-04-04T05:00:21.195Z,44.00
2019-04-04T05:01:21.207Z,48.00
2019-04-04T05:02:22.358Z,52.00
2019-04-04T05:03:22.171Z,56.00
2019-04-04T05:04:21.209Z,60.00
2019-04-04T05:05:21.145Z,68.00
2019-04-04T05:06:21.166Z,76.00
2019-04-04T05:07:21.128Z,84.00
2019-04-04T05:08:21.125Z,88.00
2019-04-04T05:09:21.108Z,96.00
2019-04-04T05:10:21.165Z,104.00
2019-04-04T05:11:21.085Z,112.00
2019-04-04T05:12:21.913Z,124.00
2019-04-04T05:13:21.053Z,136.00
2019-04-04T05:14:21.088Z,148.00
2019-04-04T05:15:21.388Z,156.00
2019-04-04T05:16:21.021Z,160.00
2019-04-04T05:17:21.006Z,164.00
2019-04-04T05:18:21.010Z,172.00
2019-04-04T05:19:20.985Z,188.00
2019-04-04T05:20:21.020Z,204.00
2019-04-04T05:21:25.552Z,224.00
2019-04-04T05:22:22.001Z,236.00
2019-04-04T05:23:21.006Z,240.00
2019-04-04T05:24:20.976Z,240.00
2019-04-04T05:25:20.943Z,240.00
2019-04-04T05:26:20.977Z,240.00
2019-04-04T05:27:20.901Z,240.00
2019-04-04T05:28:20.892Z,240.00
2019-04-04T05:29:20.897Z,240.00
2019-04-04T05:30:20.909Z,248.00
2019-04-04T05:31:20.866Z,260.00
2019-04-04T05:32:21.689Z,280.00
2019-04-04T05:33:22.828Z,296.00
2019-04-04T05:34:20.831Z,312.00
2019-04-04T05:35:20.811Z,316.00
2019-04-04T05:36:20.817Z,320.00
2019-04-04T05:37:20.789Z,324.00
2019-04-04T05:38:20.820Z,332.00
2019-04-04T05:39:20.781Z,340.00
2019-04-04T05:40:23.259Z,356.00
2019-04-04T05:41:20.789Z,384.00
2019-04-04T05:42:20.741Z,424.00
2019-04-04T05:43:20.785Z,452.00
2019-04-04T05:44:20.719Z,464.00
2019-04-04T05:45:20.711Z,472.00
2019-04-04T05:46:20.701Z,476.00
2019-04-04T05:47:22.901Z,484.00
2019-04-04T05:48:20.690Z,492.00
2019-04-04T05:49:20.722Z,504.00
2019-04-04T05:50:20.700Z,516.00
2019-04-04T05:51:20.651Z,540.00
2019-04-04T05:52:20.640Z,580.00
2019-04-04T05:53:21.559Z,620.00
2019-04-04T05:54:20.602Z,660.00
2019-04-04T05:55:20.651Z,688.00
2019-04-04T05:56:20.584Z,700.00
2019-04-04T05:57:20.795Z,716.00
2019-04-04T05:58:22.588Z,744.00
2019-04-04T05:59:23.631Z,780.00
2019-04-04T06:00:20.551Z,828.00
2019-04-04T06:01:20.528Z,876.00
2019-04-04T06:02:20.530Z,928.00
2019-04-04T06:03:20.611Z,992.00
2019-04-04T06:04:20.517Z,1084.00
2019-04-04T06:05:20.538Z,1200.00
2019-04-04T06:06:20.475Z,1348.00
2019-04-04T06:07:20.490Z,1512.00
2019-04-04T06:08:20.471Z,1704.00
2019-04-04T06:09:20.528Z,1924.00
2019-04-04T06:10:20.474Z,2128.00
2019-04-04T06:11:21.653Z,2280.00
2019-04-04T06:12:20.509Z,2360.00
2019-04-04T06:13:22.217Z,2384.00
2019-04-04T06:14:20.744Z,2380.00
2019-04-04T06:15:20.592Z,2368.00
2019-04-04T06:16:20.378Z,2356.00
2019-04-04T06:17:20.398Z,2340.00
2019-04-04T06:18:20.336Z,2332.00
2019-04-04T06:19:20.387Z,2360.00
2019-04-04T06:20:20.373Z,2412.00
2019-04-04T06:21:20.317Z,2444.00
2019-04-04T06:22:21.256Z,2440.00
2019-04-04T06:23:20.612Z,2392.00
2019-04-04T06:24:20.345Z,2308.00
2019-04-04T06:25:20.275Z,2208.00
2019-04-04T06:26:20.293Z,2116.00
2019-04-04T06:27:20.274Z,2044.00
2019-04-04T06:28:20.255Z,1996.00
2019-04-04T06:29:20.222Z,1980.00
2019-04-04T06:30:20.787Z,1984.00
2019-04-04T06:31:20.246Z,2012.00
2019-04-04T06:32:20.252Z,2060.00
2019-04-04T06:33:20.191Z,2100.00
2019-04-04T06:34:20.188Z,2140.00
2019-04-04T06:35:20.162Z,2164.00
2019-04-04T06:36:20.159Z,2140.00
2019-04-04T06:37:20.669Z,2092.00
2019-04-04T06:38:22.969Z,2040.00
2019-04-04T06:39:20.171Z,1996.00
2019-04-04T06:40:20.144Z,1972.00
2019-04-04T06:41:20.094Z,1976.00
2019-04-04T06:42:20.073Z,1968.00
2019-04-04T06:43:20.093Z,1948.00
2019-04-04T06:44:20.061Z,1924.00
2019-04-04T06:45:20.112Z,1896.00
2019-04-04T06:46:22.728Z,1860.00
2019-04-04T06:47:20.042Z,1840.00
2019-04-04T06:48:20.032Z,1824.00
2019-04-04T06:49:20.013Z,1824.00
2019-04-04T06:50:19.998Z,1804.00
2019-04-04T06:51:20.067Z,1776.00
2019-04-04T06:52:19.976Z,1780.00
2019-04-04T06:53:21.865Z,1832.00
2019-04-04T06:54:19.958Z,1952.00
2019-04-04T06:55:19.937Z,2140.00
2019-04-04T06:56:19.952Z,2356.00
2019-04-04T06:57:19.973Z,2528.00
2019-04-04T06:58:19.914Z,2644.00
2019-04-04T06:59:19.903Z,2712.00
2019-04-04T07:00:19.893Z,2772.00
2019-04-04T07:01:21.997Z,2900.00
2019-04-04T07:02:19.865Z,3108.00
2019-04-04T07:03:19.901Z,3392.00
2019-04-04T07:04:19.836Z,3624.00
2019-04-04T07:05:19.824Z,3656.00
2019-04-04T07:06:19.829Z,3524.00
2019-04-04T07:07:19.809Z,3416.00
2019-04-04T07:08:19.837Z,3396.00
2019-04-04T07:09:19.801Z,3420.00
2019-04-04T07:10:21.829Z,3464.00
2019-04-04T07:11:21.571Z,3500.00
2019-04-04T07:12:24.347Z,3468.00
2019-04-04T07:13:22.514Z,3360.00
2019-04-04T07:14:21.617Z,3228.00
2019-04-04T07:15:19.735Z,3156.00
2019-04-04T07:16:19.710Z,3160.00
2019-04-04T07:17:19.717Z,3220.00
2019-04-04T07:18:19.689Z,3276.00
2019-04-04T07:19:19.762Z,3272.00
2019-04-04T07:20:19.679Z,3188.00
2019-04-04T07:21:20.243Z,3116.00
2019-04-04T07:22:20.591Z,3084.00
2019-04-04T07:23:19.681Z,3064.00
2019-04-04T07:24:19.635Z,3100.00
2019-04-04T07:25:19.613Z,3348.00
2019-04-04T07:26:19.637Z,3860.00
2019-04-04T07:27:19.643Z,4408.00
2019-04-04T07:28:19.720Z,4612.00
2019-04-04T07:29:19.625Z,4448.00
2019-04-04T07:30:19.559Z,4148.00
2019-04-04T07:31:19.540Z,3868.00
2019-04-04T07:32:19.571Z,3660.00
2019-04-04T07:33:21.340Z,3452.00
2019-04-04T07:34:19.510Z,3248.00
2019-04-04T07:35:21.079Z,3136.00
2019-04-04T07:36:20.231Z,3040.00
2019-04-04T07:37:21.872Z,2948.00
2019-04-04T07:38:19.476Z,2868.00
2019-04-04T07:39:21.196Z,2788.00
2019-04-04T07:40:20.396Z,2748.00
2019-04-04T07:41:19.481Z,2784.00
2019-04-04T07:42:19.525Z,2888.00
2019-04-04T07:43:20.107Z,3028.00
2019-04-04T07:44:21.172Z,3140.00
2019-04-04T07:45:19.382Z,3196.00
2019-04-04T07:46:19.429Z,3224.00
2019-04-04T07:47:19.552Z,3248.00
2019-04-04T07:48:19.415Z,3252.00
2019-04-04T07:49:21.103Z,3252.00
2019-04-04T07:50:19.419Z,3288.00
2019-04-04T07:51:19.344Z,3380.00
2019-04-04T07:52:19.319Z,3504.00
2019-04-04T07:53:19.298Z,3644.00
2019-04-04T07:54:19.293Z,3744.00
2019-04-04T07:55:19.416Z,3768.00
2019-04-04T07:56:19.316Z,3800.00
2019-04-04T07:57:19.874Z,3916.00
2019-04-04T07:58:19.418Z,4096.00
2019-04-04T07:59:19.253Z,4304.00
2019-04-04T08:00:19.220Z,4496.00
2019-04-04T08:01:19.248Z,4656.00
2019-04-04T08:02:19.258Z,4804.00
2019-04-04T08:03:19.202Z,4960.00
2019-04-04T08:04:19.243Z,5128.00
2019-04-04T08:05:19.166Z,5276.00
2019-04-04T08:06:19.186Z,5356.00
2019-04-04T08:07:19.161Z,5420.00
2019-04-04T08:08:19.135Z,5488.00
2019-04-04T08:09:19.200Z,5528.00
2019-04-04T08:10:20.864Z,5616.00
2019-04-04T08:11:19.095Z,5720.00
2019-04-04T08:12:19.084Z,5780.00
2019-04-04T08:13:19.160Z,5832.00
2019-04-04T08:14:19.095Z,5896.00
2019-04-04T08:15:19.051Z,5920.00
2019-04-04T08:16:19.041Z,5820.00
2019-04-04T08:17:19.248Z,5700.00
2019-04-04T08:18:19.070Z,5612.00
2019-04-04T08:19:19.007Z,5544.00
2019-04-04T08:20:19.087Z,5428.00
2019-04-04T08:21:19.002Z,5320.00
2019-04-04T08:22:19.175Z,5204.00
2019-04-04T08:23:18.964Z,5040.00
2019-04-04T08:24:19.008Z,4728.00
2019-04-04T08:25:18.968Z,4300.00
2019-04-04T08:26:18.941Z,3892.00
2019-04-04T08:27:18.962Z,3652.00
2019-04-04T08:28:18.922Z,3668.00
2019-04-04T08:29:18.956Z,3880.00
2019-04-04T08:30:19.026Z,4116.00
2019-04-04T08:31:18.897Z,4288.00
2019-04-04T08:32:18.881Z,4468.00
2019-04-04T08:33:18.873Z,4696.00
2019-04-04T08:34:18.886Z,4808.00
2019-04-04T08:35:18.846Z,4752.00
2019-04-04T08:36:19.534Z,4656.00
2019-04-04T08:37:18.825Z,4596.00
2019-04-04T08:38:18.797Z,4532.00
2019-04-04T08:39:18.798Z,4392.00
2019-04-04T08:40:18.832Z,4152.00
2019-04-04T08:41:18.756Z,3884.00
2019-04-04T08:42:18.753Z,3708.00
2019-04-04T08:43:18.914Z,3644.00
2019-04-04T08:44:18.735Z,3652.00
2019-04-04T08:45:18.728Z,3712.00
2019-04-04T08:46:20.117Z,3800.00
2019-04-04T08:47:18.837Z,3984.00
2019-04-04T08:48:19.020Z,4292.00
2019-04-04T08:49:18.671Z,4652.00
2019-04-04T08:50:18.660Z,4980.00
2019-04-04T08:51:18.701Z,5244.00
2019-04-04T08:52:20.767Z,5456.00
2019-04-04T08:53:18.693Z,5592.00
2019-04-04T08:54:18.717Z,5612.00
2019-04-04T08:55:18.611Z,5588.00
2019-04-04T08:56:18.635Z,5616.00
2019-04-04T08:57:18.592Z,5736.00
2019-04-04T08:58:18.576Z,5888.00
2019-04-04T08:59:18.570Z,6056.00
2019-04-04T09:00:18.587Z,6204.00
2019-04-04T09:01:18.577Z,6256.00
2019-04-04T09:02:18.528Z,6244.00
2019-04-04T09:03:18.519Z,6312.00
2019-04-04T09:04:18.514Z,6496.00
2019-04-04T09:05:18.502Z,6764.00
2019-04-04T09:06:18.531Z,6964.00
2019-04-04T09:07:18.515Z,7000.00
2019-04-04T09:08:18.488Z,6916.00
2019-04-04T09:09:18.554Z,6776.00
2019-04-04T09:10:18.753Z,6632.00
2019-04-04T09:11:18.444Z,6508.00
2019-04-04T09:12:18.411Z,6388.00
2019-04-04T09:13:18.448Z,6260.00
2019-04-04T09:14:18.391Z,6156.00
2019-04-04T09:15:18.424Z,6056.00
2019-04-04T09:16:18.429Z,6020.00
2019-04-04T09:17:18.404Z,6052.00
2019-04-04T09:18:18.356Z,6108.00
2019-04-04T09:19:18.336Z,6164.00
2019-04-04T09:20:18.320Z,6180.00
2019-04-04T09:21:18.333Z,6168.00
2019-04-04T09:22:18.357Z,6228.00
2019-04-04T09:23:18.292Z,6360.00
2019-04-04T09:24:18.277Z,6572.00
2019-04-04T09:25:18.332Z,6828.00
2019-04-04T09:26:18.273Z,7004.00
2019-04-04T09:27:18.643Z,7068.00
2019-04-04T09:28:18.272Z,7068.00
2019-04-04T09:29:18.266Z,7064.00
2019-04-04T09:30:18.213Z,7052.00
2019-04-04T09:31:18.204Z,7028.00
2019-04-04T09:32:18.203Z,7000.00
2019-04-04T09:33:20.921Z,7012.00
2019-04-04T09:34:18.197Z,7080.00
2019-04-04T09:35:18.336Z,7176.00
2019-04-04T09:36:18.176Z,7224.00
2019-04-04T09:37:18.197Z,7168.00
2019-04-04T09:38:18.125Z,7004.00
2019-04-04T09:39:18.129Z,6812.00
2019-04-04T09:40:18.183Z,6764.00
2019-04-04T09:41:19.823Z,6944.00
2019-04-04T09:42:21.760Z,7296.00
2019-04-04T09:43:20.704Z,7764.00
2019-04-04T09:44:18.093Z,8236.00
2019-04-04T09:45:18.107Z,8616.00
2019-04-04T09:46:18.074Z,8864.00
2019-04-04T09:47:18.109Z,8948.00
2019-04-04T09:48:18.053Z,8892.00
2019-04-04T09:49:20.344Z,8744.00
2019-04-04T09:50:18.006Z,8644.00
2019-04-04T09:51:17.972Z,8720.00
2019-04-04T09:52:18.109Z,8984.00
2019-04-04T09:53:18.004Z,9148.00
2019-04-04T09:54:19.441Z,8996.00
2019-04-04T09:55:18.042Z,8640.00
2019-04-04T09:56:17.946Z,8352.00
2019-04-04T09:57:18.183Z,8172.00
2019-04-04T09:58:18.250Z,8044.00
2019-04-04T09:59:18.217Z,7920.00
2019-04-04T10:00:17.880Z,7772.00
2019-04-04T10:01:17.866Z,7660.00
2019-04-04T10:02:18.283Z,7564.00
2019-04-04T10:03:17.856Z,7452.00
2019-04-04T10:04:19.108Z,7300.00
2019-04-04T10:05:17.970Z,7120.00
2019-04-04T10:06:17.837Z,6932.00
2019-04-04T10:07:17.845Z,6800.00
2019-04-04T10:08:17.860Z,6836.00
2019-04-04T10:09:17.791Z,7036.00
2019-04-04T10:10:17.803Z,7312.00
2019-04-04T10:11:17.766Z,7560.00
2019-04-04T10:12:17.730Z,7748.00
2019-04-04T10:13:17.743Z,7864.00
2019-04-04T10:14:17.862Z,7936.00
2019-04-04T10:15:17.704Z,8032.00
2019-04-04T10:16:17.730Z,8084.00
2019-04-04T10:17:17.802Z,8160.00
2019-04-04T10:18:17.720Z,8280.00
2019-04-04T10:19:17.655Z,8360.00
2019-04-04T10:20:17.640Z,8424.00
2019-04-04T10:21:17.693Z,8468.00
2019-04-04T10:22:17.625Z,8480.00
2019-04-04T10:23:17.613Z,8468.00
2019-04-04T10:24:17.596Z,8396.00
2019-04-04T10:25:17.666Z,8196.00
2019-04-04T10:26:17.577Z,8040.00
2019-04-04T10:27:17.563Z,8044.00
2019-04-04T10:28:17.623Z,8060.00
2019-04-04T10:29:17.550Z,7944.00
2019-04-04T10:30:17.542Z,7856.00
2019-04-04T10:31:17.557Z,7780.00
2019-04-04T10:32:17.526Z,7640.00
2019-04-04T10:33:17.508Z,7412.00
2019-04-04T10:34:17.526Z,6996.00
2019-04-04T10:35:17.486Z,6608.00
2019-04-04T10:36:17.476Z,6344.00
2019-04-04T10:37:17.456Z,6396.00
2019-04-04T10:38:17.459Z,6700.00
2019-04-04T10:39:28.229Z,6868.00
2019-04-04T10:41:27.890Z,6872.00
2019-04-04T10:42:28.768Z,7376.00
2019-04-04T10:43:27.764Z,8296.00
2019-04-04T10:44:27.751Z,8548.00
2019-04-04T10:45:27.778Z,7988.00
2019-04-04T10:46:27.716Z,7192.00
2019-04-04T10:47:27.714Z,6644.00
2019-04-04T10:48:28.252Z,6348.00
2019-04-04T10:49:27.749Z,6128.00
2019-04-04T10:50:27.721Z,5888.00
2019-04-04T10:51:27.670Z,5584.00
2019-04-04T10:52:27.717Z,5336.00
2019-04-04T10:53:27.641Z,5292.00
2019-04-04T10:54:27.638Z,5544.00
2019-04-04T10:55:27.683Z,6088.00
2019-04-04T10:56:27.633Z,6540.00
2019-04-04T10:57:27.649Z,6500.00
2019-04-04T10:58:27.602Z,6144.00
2019-04-04T10:59:27.577Z,5760.00
2019-04-04T11:00:30.357Z,5580.00
2019-04-04T11:01:27.560Z,5620.00
2019-04-04T11:02:27.587Z,5676.00
2019-04-04T11:03:27.527Z,5712.00
2019-04-04T11:04:27.525Z,5764.00
2019-04-04T11:05:27.954Z,5952.00
2019-04-04T11:06:27.496Z,6248.00
2019-04-04T11:07:27.493Z,6652.00
2019-04-04T11:08:27.544Z,7184.00
2019-04-04T11:09:27.457Z,7636.00
2019-04-04T11:10:27.455Z,7808.00
2019-04-04T11:11:27.487Z,7772.00
2019-04-04T11:12:27.427Z,7744.00
2019-04-04T11:13:33.539Z,7684.00
2019-04-04T11:14:28.476Z,7612.00
2019-04-04T11:15:27.410Z,7616.00
2019-04-04T11:16:30.407Z,7652.00
2019-04-04T11:17:27.418Z,7716.00
2019-04-04T11:18:27.387Z,7876.00
2019-04-04T11:19:31.468Z,8124.00
2019-04-04T11:20:27.350Z,8488.00
2019-04-04T11:21:27.331Z,8984.00
2019-04-04T11:22:27.321Z,9732.00
2019-04-04T11:23:27.547Z,10828.00
2019-04-04T11:24:27.295Z,11244.00
2019-04-04T11:25:27.288Z,10188.00
2019-04-04T11:26:27.273Z,9220.00
2019-04-04T11:27:27.281Z,8592.00
2019-04-04T11:28:27.244Z,7688.00
2019-04-04T11:29:27.284Z,6792.00
2019-04-04T11:30:27.242Z,6196.00
2019-04-04T11:31:27.867Z,5856.00
2019-04-04T11:32:27.216Z,5708.00
2019-04-04T11:33:27.215Z,5648.00
2019-04-04T11:34:27.197Z,5648.00
2019-04-04T11:35:27.175Z,5664.00
2019-04-04T11:36:27.158Z,5676.00
2019-04-04T11:37:27.187Z,5576.00
2019-04-04T11:38:27.202Z,5292.00
2019-04-04T11:39:27.154Z,4960.00
2019-04-04T11:40:27.112Z,4668.00
2019-04-04T11:41:27.171Z,4368.00
2019-04-04T11:42:27.113Z,4108.00
2019-04-04T11:43:27.169Z,3920.00
2019-04-04T11:44:27.098Z,3816.00
2019-04-04T11:45:27.056Z,3800.00
2019-04-04T11:46:27.061Z,3860.00
2019-04-04T11:47:27.033Z,3956.00
2019-04-04T11:48:27.026Z,4132.00
2019-04-04T11:49:27.151Z,4332.00
2019-04-04T11:50:27.013Z,4468.00
2019-04-04T11:51:27.010Z,4652.00
2019-04-04T11:52:27.028Z,5016.00
2019-04-04T11:53:26.965Z,5468.00
2019-04-04T11:54:26.965Z,5784.00
2019-04-04T11:55:26.990Z,6032.00
2019-04-04T11:56:27.002Z,6280.00
2019-04-04T11:57:26.950Z,6568.00
2019-04-04T11:58:26.917Z,6888.00
2019-04-04T11:59:26.900Z,7008.00
2019-04-04T12:00:27.376Z,6852.00
2019-04-04T12:01:27.483Z,6540.00
2019-04-04T12:02:26.906Z,6220.00
2019-04-04T12:03:26.880Z,6072.00
2019-04-04T12:04:26.856Z,6052.00
2019-04-04T12:05:27.267Z,5928.00
2019-04-04T12:06:27.414Z,5804.00
2019-04-04T12:07:26.943Z,6084.00
2019-04-04T12:08:26.808Z,6744.00
2019-04-04T12:09:26.824Z,7296.00
2019-04-04T12:10:26.775Z,7444.00
2019-04-04T12:11:26.839Z,7272.00
2019-04-04T12:12:26.752Z,7168.00
2019-04-04T12:13:27.371Z,7364.00
2019-04-04T12:14:26.849Z,7660.00
2019-04-04T12:15:26.755Z,7808.00
2019-04-04T12:16:26.701Z,7732.00
2019-04-04T12:17:26.741Z,7508.00
2019-04-04T12:18:26.730Z,7316.00
2019-04-04T12:19:26.668Z,7252.00
2019-04-04T12:20:26.651Z,7372.00
2019-04-04T12:21:26.840Z,7556.00
2019-04-04T12:22:26.685Z,7628.00
2019-04-04T12:23:26.645Z,7664.00
2019-04-04T12:24:26.632Z,7748.00
2019-04-04T12:25:26.611Z,8016.00
2019-04-04T12:26:26.883Z,8648.00
2019-04-04T12:27:26.640Z,9444.00
2019-04-04T12:28:26.646Z,9896.00
2019-04-04T12:29:26.606Z,10092.00
2019-04-04T12:30:27.349Z,10224.00
2019-04-04T12:31:26.540Z,10128.00
2019-04-04T12:32:26.538Z,9808.00
2019-04-04T12:33:26.551Z,9364.00
2019-04-04T12:34:26.519Z,8836.00
2019-04-04T12:35:27.392Z,8408.00